Time;durP1;ratioP1;P1;durP2;ratioP2;P2;SDS_P1;SDS_P2;PMS_P1;PMS_P2;Temp;Humidity;BMP_temperature;BMP_pressure;BME280_temperature;BME280_humidity;BME280_pressure;Samples;Min_cycle;Max_cycle;Signal;HPM_P1;HPM_P2
2021/11/30 00:00:13;;;;;;;38.90;24.20;;;;;;;0.24;100.00;97769.60;102259;1316;76242;-72
2021/11/30 00:03:00;;;;;;;39.40;25.00;;;;;;;0.18;100.00;97766.86;102251;1316;70981;-73
2021/11/30 00:05:27;;;;;;;41.70;26.30;;;;;;;0.15;100.00;97769.10;102298;1316;73250;-72
2021/11/30 00:07:56;;;;;;;41.20;26.50;;;;;;;0.13;100.00;97778.98;101896;1318;62052;-72
2021/11/30 00:11:06;;;;;;;36.70;24.10;;;;;;;0.14;100.00;97781.58;102302;1310;62161;-72
2021/11/30 00:13:15;;;;;;;36.60;22.20;;;;;;;0.16;100.00;97781.80;102204;1317;75821;-72
2021/11/30 00:15:43;;;;;;;35.60;22.10;;;;;;;0.18;100.00;97790.97;102129;1310;70534;-71
2021/11/30 00:18:10;;;;;;;31.80;20.60;;;;;;;0.20;100.00;97791.20;102170;1317;74014;-71
2021/11/30 00:20:38;;;;;;;38.60;22.40;;;;;;;0.23;100.00;97800.53;102235;1316;62142;-72
2021/11/30 00:23:06;;;;;;;34.80;22.60;;;;;;;0.26;100.00;97804.42;102487;1318;62223;-72
2021/11/30 00:25:33;;;;;;;35.50;22.20;;;;;;;0.28;100.00;97810.63;102242;1317;77364;-72
2021/11/30 00:28:01;;;;;;;33.10;21.20;;;;;;;0.29;100.00;97816.17;102292;1317;69609;-73
2021/11/30 00:30:28;;;;;;;30.30;20.80;;;;;;;0.30;100.00;97816.98;102301;1317;74589;-72
2021/11/30 00:32:54;;;;;;;33.10;21.80;;;;;;;0.32;100.00;97820.08;102246;1316;62156;-72
2021/11/30 00:35:25;;;;;;;29.10;20.60;;;;;;;0.33;100.00;97823.67;102299;1311;62222;-73
2021/11/30 00:37:52;;;;;;;27.00;19.70;;;;;;;0.34;100.00;97826.79;102338;1316;77185;-72
2021/11/30 00:40:20;;;;;;;30.10;21.40;;;;;;;0.34;100.00;97830.81;102352;1316;69530;-73
2021/11/30 00:42:47;;;;;;;30.40;20.80;;;;;;;0.35;100.00;97836.87;102334;1317;72237;-73
2021/11/30 00:45:17;;;;;;;29.40;19.50;;;;;;;0.36;100.00;97838.73;102370;1317;62151;-71
2021/11/30 00:47:52;;;;;;;30.50;20.60;;;;;;;0.40;100.00;97844.50;102297;1314;62325;-71
2021/11/30 00:50:21;;;;;;;29.80;21.00;;;;;;;0.42;100.00;97851.21;101862;1316;76431;-72
2021/11/30 00:52:50;;;;;;;27.00;18.00;;;;;;;0.42;100.00;97853.85;102342;1310;68836;-72
2021/11/30 00:55:17;;;;;;;33.70;23.40;;;;;;;0.42;100.00;97856.28;102299;1316;73099;-72
2021/11/30 00:57:45;;;;;;;31.00;21.60;;;;;;;0.40;100.00;97858.12;101936;1317;62129;-73
2021/11/30 01:00:16;;;;;;;33.10;21.80;;;;;;;0.40;100.00;97860.92;102132;1317;62165;-71
2021/11/30 01:02:43;;;;;;;31.00;20.70;;;;;;;0.38;100.00;97867.82;102301;1310;77249;-73
2021/11/30 01:05:11;;;;;;;30.60;21.90;;;;;;;0.37;100.00;97866.48;102304;1309;70027;-73
2021/11/30 01:07:37;;;;;;;30.70;19.90;;;;;;;0.38;100.00;97865.58;102211;1311;73525;-73
2021/11/30 01:10:12;;;;;;;31.20;20.90;;;;;;;0.41;100.00;97866.13;102330;1314;62147;-73
2021/11/30 01:12:39;;;;;;;27.40;18.80;;;;;;;0.43;100.00;97867.42;102233;1317;62228;-74
2021/11/30 01:15:10;;;;;;;28.40;19.30;;;;;;;0.44;100.00;97869.12;102343;1314;77599;-72
2021/11/30 01:17:37;;;;;;;29.00;19.60;;;;;;;0.45;100.00;97867.69;101896;1318;68987;-73
2021/11/30 01:20:06;;;;;;;29.60;18.90;;;;;;;0.47;100.00;97868.67;102320;1310;73624;-72
2021/11/30 01:22:33;;;;;;;31.30;20.40;;;;;;;0.49;100.00;97868.07;102378;1316;62193;-73
2021/11/30 01:25:00;;;;;;;35.00;21.50;;;;;;;0.49;100.00;97873.80;102368;1310;62267;-71
2021/11/30 01:27:26;;;;;;;29.00;21.30;;;;;;;0.49;100.00;97880.63;102351;1310;76364;-71
2021/11/30 01:29:53;;;;;;;29.10;21.20;;;;;;;0.50;100.00;97881.80;102083;1317;67670;-73
2021/11/30 01:32:20;;;;;;;25.20;18.10;;;;;;;0.53;100.00;97880.27;102400;1317;72163;-72
2021/11/30 01:34:47;;;;;;;29.80;21.10;;;;;;;0.55;100.00;97881.92;102426;1317;62164;-73
2021/11/30 01:37:15;;;;;;;28.30;20.60;;;;;;;0.56;100.00;97878.73;102332;1317;62285;-73
2021/11/30 01:39:45;;;;;;;30.60;20.30;;;;;;;0.55;100.00;97884.02;102164;1313;75457;-73
2021/11/30 01:42:14;;;;;;;26.30;18.90;;;;;;;0.52;100.00;97880.85;102502;1311;70516;-72
2021/11/30 01:50:00;;;;;;;25.60;18.70;;;;;;;0.50;100.00;97879.36;102670;1311;62259;-72
2021/11/30 01:52:28;;;;;;;27.50;19.50;;;;;;;0.50;100.00;97880.95;102922;1314;76439;-75
2021/11/30 01:54:55;;;;;;;29.90;20.00;;;;;;;0.51;100.00;97886.16;102595;1311;70537;-73
2021/11/30 01:57:24;;;;;;;28.80;20.30;;;;;;;0.52;100.00;97886.79;103170;1317;74158;-73
2021/11/30 01:59:53;;;;;;;27.70;19.80;;;;;;;0.51;100.00;97884.05;103781;1310;62158;-72
2021/11/30 02:02:21;;;;;;;26.30;20.40;;;;;;;0.50;100.00;97890.72;104604;1310;62097;-72
2021/11/30 02:04:49;;;;;;;25.80;16.40;;;;;;;0.51;100.00;97893.85;104796;1313;76415;-73
2021/11/30 02:07:16;;;;;;;29.60;20.30;;;;;;;0.50;100.00;97899.12;104634;1316;70362;-70
2021/11/30 02:09:45;;;;;;;31.30;20.50;;;;;;;0.50;100.00;97899.98;104040;1310;73990;-71
2021/11/30 02:12:12;;;;;;;29.20;20.30;;;;;;;0.51;100.00;97901.69;102114;1318;62142;-75
2021/11/30 02:14:41;;;;;;;27.80;20.30;;;;;;;0.52;100.00;97906.70;102471;1316;62098;-74
2021/11/30 02:17:09;;;;;;;34.40;22.00;;;;;;;0.54;100.00;97906.98;102080;1317;77146;-71
2021/11/30 02:19:43;;;;;;;25.70;20.40;;;;;;;0.56;100.00;97905.46;102484;1311;70833;-73
2021/11/30 02:22:13;;;;;;;27.10;19.70;;;;;;;0.56;100.00;97910.03;102469;1318;73730;-73
2021/11/30 02:24:42;;;;;;;27.30;20.50;;;;;;;0.56;100.00;97914.39;102517;1311;62141;-73
2021/11/30 02:27:09;;;;;;;28.00;21.30;;;;;;;0.56;100.00;97915.10;102294;1316;62160;-72
2021/11/30 02:29:39;;;;;;;31.30;22.50;;;;;;;0.54;100.00;97912.40;102191;1316;75609;-73
2021/11/30 02:32:07;;;;;;;32.30;22.90;;;;;;;0.53;100.00;97911.41;102307;1311;69755;-72
2021/11/30 02:34:34;;;;;;;31.70;24.90;;;;;;;0.51;100.00;97913.38;102326;1310;73309;-71
2021/11/30 02:37:10;;;;;;;28.90;22.30;;;;;;;0.50;100.00;97915.55;102314;1310;62197;-72
2021/11/30 02:39:37;;;;;;;26.70;20.20;;;;;;;0.49;100.00;97915.55;102371;1311;62432;-72
2021/11/30 02:42:07;;;;;;;27.30;20.30;;;;;;;0.49;100.00;97918.05;102304;1316;76147;-72
2021/11/30 02:44:35;;;;;;;26.60;19.30;;;;;;;0.48;100.00;97915.30;102347;1311;70542;-73
2021/11/30 02:47:08;;;;;;;27.20;18.60;;;;;;;0.46;100.00;97915.35;102405;1311;73790;-71
2021/11/30 02:49:37;;;;;;;24.30;17.70;;;;;;;0.44;100.00;97918.73;102312;1310;62123;-72
2021/11/30 02:52:11;;;;;;;23.30;17.20;;;;;;;0.44;100.00;97922.24;102135;1314;62494;-72
2021/11/30 02:54:42;;;;;;;24.10;17.40;;;;;;;0.44;100.00;97912.98;102237;1317;77323;-72
2021/11/30 02:57:11;;;;;;;22.90;16.70;;;;;;;0.44;100.00;97918.41;102338;1310;69081;-72
2021/11/30 02:59:41;;;;;;;20.70;16.20;;;;;;;0.44;100.00;97919.44;102419;1313;72703;-71
2021/11/30 03:02:13;;;;;;;20.20;16.90;;;;;;;0.44;100.00;97924.16;102404;1311;62212;-71
2021/11/30 03:04:41;;;;;;;25.90;18.50;;;;;;;0.44;100.00;97925.04;102406;1311;62013;-72
2021/11/30 03:07:11;;;;;;;21.30;16.70;;;;;;;0.44;100.00;97927.83;102309;1311;77283;-72
2021/11/30 03:09:39;;;;;;;19.80;15.60;;;;;;;0.44;100.00;97927.82;102302;1310;68927;-72
2021/11/30 03:12:07;;;;;;;22.60;17.40;;;;;;;0.44;100.00;97929.20;102279;1310;74493;-72
2021/11/30 03:14:34;;;;;;;25.90;18.20;;;;;;;0.45;100.00;97928.85;102361;1311;62118;-72
2021/11/30 03:17:02;;;;;;;23.70;18.40;;;;;;;0.44;100.00;97925.41;102336;1310;62118;-72
2021/11/30 03:19:30;;;;;;;22.40;16.30;;;;;;;0.43;100.00;97927.02;102299;1310;76386;-72
2021/11/30 03:21:59;;;;;;;22.30;17.00;;;;;;;0.42;100.00;97924.94;102329;1310;69247;-72
2021/11/30 03:24:26;;;;;;;19.00;15.10;;;;;;;0.43;100.00;97929.30;102642;1313;74195;-72
2021/11/30 03:26:52;;;;;;;19.00;14.00;;;;;;;0.43;100.00;97934.00;102393;1314;62137;-73
2021/11/30 03:29:19;;;;;;;18.00;14.80;;;;;;;0.43;100.00;97935.59;102475;1310;62101;-73
2021/11/30 03:31:48;;;;;;;19.90;15.20;;;;;;;0.43;100.00;97937.52;102717;1318;74471;-72
2021/11/30 03:34:22;;;;;;;20.10;15.40;;;;;;;0.43;100.00;97942.89;103601;1310;70252;-71
2021/11/30 03:36:51;;;;;;;19.70;14.80;;;;;;;0.45;100.00;97943.36;103597;1311;73528;-72
2021/11/30 03:39:22;;;;;;;19.60;14.10;;;;;;;0.46;100.00;97944.36;102428;1311;62222;-74
2021/11/30 03:41:51;;;;;;;19.60;14.90;;;;;;;0.47;100.00;97942.95;102460;1314;62118;-72
2021/11/30 03:44:18;;;;;;;17.50;14.10;;;;;;;0.47;100.00;97941.17;102540;1310;75712;-73
2021/11/30 03:46:46;;;;;;;21.30;16.20;;;;;;;0.47;100.00;97939.95;102469;1316;69558;-71
2021/11/30 03:49:13;;;;;;;19.20;14.70;;;;;;;0.47;100.00;97933.85;102330;1310;74370;-72
2021/11/30 03:51:41;;;;;;;18.70;15.20;;;;;;;0.46;100.00;97931.96;102371;1310;62141;-73
2021/11/30 03:54:08;;;;;;;20.20;15.10;;;;;;;0.46;100.00;97929.34;102268;1311;62129;-72
2021/11/30 03:56:35;;;;;;;16.60;14.40;;;;;;;0.47;100.00;97929.30;102353;1316;74719;-72
2021/11/30 03:59:03;;;;;;;17.20;14.80;;;;;;;0.47;100.00;97926.52;102330;1313;70555;-74
2021/11/30 04:01:29;;;;;;;17.10;14.40;;;;;;;0.47;100.00;97929.14;102301;1311;73472;-74
2021/11/30 04:03:57;;;;;;;19.40;16.60;;;;;;;0.47;100.00;97934.36;102322;1313;62207;-73
2021/11/30 04:06:24;;;;;;;17.50;13.70;;;;;;;0.47;100.00;97937.34;102326;1310;62012;-72
2021/11/30 04:08:51;;;;;;;23.00;17.00;;;;;;;0.47;100.00;97940.83;102332;1311;76320;-72
2021/11/30 04:11:21;;;;;;;21.80;17.50;;;;;;;0.46;100.00;97943.34;102381;1310;68836;-71
2021/11/30 04:13:49;;;;;;;18.90;14.50;;;;;;;0.46;100.00;97943.34;102319;1310;74493;-72
2021/11/30 04:16:16;;;;;;;23.50;18.30;;;;;;;0.45;100.00;97947.02;101923;1316;61995;-73
2021/11/30 04:18:43;;;;;;;20.80;16.80;;;;;;;0.45;100.00;97955.23;102342;1314;62636;-73
2021/11/30 04:21:10;;;;;;;23.40;18.20;;;;;;;0.45;100.00;97956.11;102326;1310;77317;-72
2021/11/30 04:23:36;;;;;;;25.70;19.10;;;;;;;0.46;100.00;97955.92;102292;1310;70508;-71
2021/11/30 04:26:03;;;;;;;21.30;17.80;;;;;;;0.47;100.00;97958.30;102335;1310;73466;-72
2021/11/30 04:28:31;;;;;;;20.20;16.30;;;;;;;0.47;100.00;97956.02;102280;1310;62236;-72
2021/11/30 04:30:58;;;;;;;20.90;16.40;;;;;;;0.47;100.00;97958.31;102230;1310;62152;-74
2021/11/30 04:33:25;;;;;;;20.00;16.70;;;;;;;0.46;100.00;97957.12;102337;1310;77770;-71
2021/11/30 04:35:52;;;;;;;17.70;14.80;;;;;;;0.47;100.00;97959.00;102322;1310;70533;-72
2021/11/30 04:38:19;;;;;;;21.40;17.00;;;;;;;0.48;100.00;97959.34;102319;1310;74254;-72
2021/11/30 04:40:45;;;;;;;20.50;16.70;;;;;;;0.47;100.00;97958.98;102187;1310;152957;-72
2021/11/30 04:43:12;;;;;;;23.40;17.00;;;;;;;0.48;100.00;97955.65;102319;1311;62392;-72
2021/11/30 04:45:55;;;;;;;18.20;16.10;;;;;;;0.49;100.00;97958.21;102132;1313;77040;-72
2021/11/30 04:48:24;;;;;;;21.30;16.10;;;;;;;0.50;100.00;97958.17;102067;1313;70466;-71
2021/11/30 04:50:53;;;;;;;18.10;15.50;;;;;;;0.49;100.00;97960.30;102377;1310;74003;-72
2021/11/30 04:53:21;;;;;;;18.40;15.40;;;;;;;0.49;100.00;97957.00;102417;1311;62215;-71
2021/11/30 04:55:50;;;;;;;15.10;11.30;;;;;;;0.49;100.00;97955.27;102521;1310;62114;-72
2021/11/30 04:58:18;;;;;;;13.70;11.00;;;;;;;0.49;100.00;97960.33;102506;1311;76047;-73
2021/11/30 05:00:47;;;;;;;12.10;10.70;;;;;;;0.49;100.00;97962.05;102113;1316;70658;-73
2021/11/30 05:03:15;;;;;;;12.60;11.20;;;;;;;0.50;100.00;97958.00;101922;1313;74097;-73
2021/11/30 05:05:43;;;;;;;15.40;13.50;;;;;;;0.51;100.00;97958.66;102345;1310;62081;-73
2021/11/30 05:08:10;;;;;;;17.30;14.50;;;;;;;0.51;100.00;97955.48;102351;1313;62116;-73
2021/11/30 05:10:36;;;;;;;15.80;13.80;;;;;;;0.51;100.00;97953.77;102385;1311;76433;-72
2021/11/30 05:13:04;;;;;;;20.20;16.10;;;;;;;0.50;100.00;97954.86;102251;1310;68800;-72
2021/11/30 05:15:31;;;;;;;21.50;16.90;;;;;;;0.47;100.00;97953.05;102358;1311;72410;-73
2021/11/30 05:17:58;;;;;;;20.90;16.90;;;;;;;0.45;100.00;97957.88;102417;1314;62108;-72
2021/11/30 05:20:26;;;;;;;24.40;19.80;;;;;;;0.42;100.00;97960.27;102324;1311;62183;-73
2021/11/30 05:22:53;;;;;;;24.10;20.50;;;;;;;0.38;100.00;97960.09;102355;1310;76255;-74
2021/11/30 05:25:25;;;;;;;25.00;20.60;;;;;;;0.35;100.00;97961.09;102326;1311;70805;-72
2021/11/30 05:27:52;;;;;;;21.50;17.80;;;;;;;0.33;100.00;97962.23;102289;1314;73356;-71
2021/11/30 05:30:20;;;;;;;20.70;16.90;;;;;;;0.30;100.00;97961.46;102323;1314;62168;-73
2021/11/30 05:32:49;;;;;;;20.30;15.90;;;;;;;0.28;100.00;97961.54;102345;1310;62843;-71
2021/11/30 05:35:16;;;;;;;19.80;15.80;;;;;;;0.26;100.00;97958.11;102355;1310;77227;-72
2021/11/30 05:37:43;;;;;;;17.60;14.00;;;;;;;0.27;100.00;97960.73;102376;1311;70619;-73
2021/11/30 05:40:10;;;;;;;16.20;13.20;;;;;;;0.27;100.00;97957.75;102298;1310;73290;-73
2021/11/30 05:42:37;;;;;;;15.30;12.50;;;;;;;0.27;100.00;97951.28;102329;1314;62217;-72
2021/11/30 05:45:04;;;;;;;15.00;12.50;;;;;;;0.27;100.00;97951.63;102307;1313;62228;-72
2021/11/30 05:47:32;;;;;;;15.40;13.00;;;;;;;0.28;100.00;97947.23;102433;1310;76986;-73
2021/11/30 05:49:58;;;;;;;16.00;12.80;;;;;;;0.29;100.00;97952.58;102224;1313;70573;-71
2021/11/30 05:52:25;;;;;;;17.70;13.70;;;;;;;0.30;100.00;97953.60;102350;1314;74243;-72
2021/11/30 05:54:53;;;;;;;16.90;13.00;;;;;;;0.32;100.00;97948.30;102207;1317;62115;-72
2021/11/30 05:57:22;;;;;;;17.70;14.30;;;;;;;0.32;100.00;97943.55;102414;1310;62112;-71
2021/11/30 05:59:50;;;;;;;17.50;13.00;;;;;;;0.34;100.00;97943.83;102087;1317;77114;-72
2021/11/30 06:02:18;;;;;;;17.50;13.40;;;;;;;0.35;100.00;97944.67;102402;1311;69435;-73
2021/11/30 06:04:45;;;;;;;18.30;14.60;;;;;;;0.36;100.00;97945.16;102371;1314;74704;-72
2021/11/30 06:07:12;;;;;;;21.20;14.70;;;;;;;0.36;100.00;97944.40;102304;1311;62180;-74
2021/11/30 06:09:39;;;;;;;21.00;14.40;;;;;;;0.36;100.00;97943.90;102390;1317;62247;-73
2021/11/30 06:12:06;;;;;;;22.10;14.80;;;;;;;0.37;100.00;97939.14;102388;1311;76840;-72
2021/11/30 06:14:32;;;;;;;18.10;13.70;;;;;;;0.38;100.00;97934.39;102360;1310;69233;-74
2021/11/30 06:16:59;;;;;;;19.10;14.30;;;;;;;0.38;100.00;97931.77;102340;1310;73613;-73
2021/11/30 06:19:26;;;;;;;20.30;14.10;;;;;;;0.38;100.00;97933.33;102392;1311;62160;-72
2021/11/30 06:21:52;;;;;;;21.10;16.30;;;;;;;0.39;100.00;97936.27;102131;1313;62121;-72
2021/11/30 06:24:19;;;;;;;21.70;15.40;;;;;;;0.39;100.00;97935.73;102364;1310;76650;-73
2021/11/30 06:26:48;;;;;;;22.70;16.00;;;;;;;0.41;100.00;97935.65;102370;1310;70653;-72
2021/11/30 06:29:16;;;;;;;25.80;18.50;;;;;;;0.42;100.00;97936.64;102375;1310;72191;-72
2021/11/30 06:31:43;;;;;;;22.60;17.70;;;;;;;0.43;100.00;97936.27;102364;1310;62113;-73
2021/11/30 06:34:10;;;;;;;30.00;21.50;;;;;;;0.44;100.00;97942.89;102279;1317;62171;-72
2021/11/30 06:36:37;;;;;;;26.30;19.20;;;;;;;0.45;100.00;97935.68;102331;1313;76303;-73
2021/11/30 06:39:05;;;;;;;22.50;16.90;;;;;;;0.46;100.00;97935.80;102400;1311;68914;-72
2021/11/30 06:41:32;;;;;;;23.40;17.60;;;;;;;0.46;100.00;97933.17;102311;1314;72594;-72
2021/11/30 06:43:59;;;;;;;24.80;18.50;;;;;;;0.47;100.00;97934.17;102318;1318;62174;-71
2021/11/30 06:46:26;;;;;;;25.90;17.10;;;;;;;0.48;100.00;97926.82;102377;1313;62251;-72
2021/11/30 06:48:53;;;;;;;22.90;16.90;;;;;;;0.49;100.00;97928.33;102080;1314;74097;-71
2021/11/30 06:51:21;;;;;;;23.90;18.90;;;;;;;0.50;100.00;97932.31;102330;1310;69725;-71
2021/11/30 06:53:48;;;;;;;26.00;18.40;;;;;;;0.50;100.00;97932.49;102360;1313;74251;-72
2021/11/30 06:56:14;;;;;;;27.60;19.60;;;;;;;0.51;100.00;97929.98;102318;1311;63618;-73
2021/11/30 06:58:41;;;;;;;23.50;18.40;;;;;;;0.53;100.00;97930.11;102327;1310;63537;-72
2021/11/30 07:01:10;;;;;;;27.40;21.00;;;;;;;0.53;100.00;97928.35;102301;1314;76457;-71
2021/11/30 07:03:37;;;;;;;27.70;20.80;;;;;;;0.53;100.00;97925.00;102261;1311;68414;-72
2021/11/30 07:11:35;;;;;;;26.60;20.90;;;;;;;0.56;100.00;97918.94;102555;1311;62098;-71
2021/11/30 07:14:03;;;;;;;27.50;21.30;;;;;;;0.59;100.00;97918.64;102395;1310;75895;-72
2021/11/30 07:16:30;;;;;;;28.70;20.30;;;;;;;0.62;100.00;97916.39;102556;1310;70535;-72
2021/11/30 07:18:57;;;;;;;31.40;22.60;;;;;;;0.67;100.00;97915.83;102412;1311;74241;-72
2021/11/30 07:21:26;;;;;;;26.40;20.20;;;;;;;0.72;100.00;97918.26;102446;1310;62476;-72
2021/11/30 07:23:54;;;;;;;31.20;23.50;;;;;;;0.76;100.00;97915.27;102579;1313;62168;-72
2021/11/30 07:26:21;;;;;;;29.20;23.80;;;;;;;0.81;100.00;97911.89;102507;1310;76504;-71
2021/11/30 07:28:48;;;;;;;32.00;23.30;;;;;;;0.85;100.00;97909.75;102397;1311;69576;-70
2021/11/30 07:31:15;;;;;;;30.70;23.40;;;;;;;0.94;100.00;97905.56;102570;1311;73287;-81
2021/11/30 07:33:46;;;;;;;25.70;20.30;;;;;;;1.00;100.00;97902.45;102649;1310;62108;-79
2021/11/30 07:36:15;;;;;;;30.20;21.10;;;;;;;1.03;100.00;97894.08;102731;1310;62165;-81
2021/11/30 07:38:46;;;;;;;27.80;21.90;;;;;;;1.07;100.00;97894.61;102641;1310;77448;-79
2021/11/30 07:41:16;;;;;;;31.00;21.90;;;;;;;1.11;100.00;97895.48;102695;1310;70094;-81
2021/11/30 07:43:43;;;;;;;28.20;20.70;;;;;;;1.14;100.00;97887.65;102540;1310;74531;-79
2021/11/30 07:46:10;;;;;;;31.60;22.00;;;;;;;1.15;100.00;97876.73;102714;1311;62130;-83
2021/11/30 07:48:36;;;;;;;24.10;19.80;;;;;;;1.19;100.00;97879.16;102811;1311;62196;-81
2021/11/30 07:51:05;;;;;;;20.80;17.70;;;;;;;1.24;100.00;97873.38;102720;1314;75018;-81
2021/11/30 07:53:31;;;;;;;22.50;16.80;;;;;;;1.30;100.00;97877.61;102738;1310;70418;-80
2021/11/30 07:55:58;;;;;;;21.00;16.00;;;;;;;1.34;100.00;97875.30;102692;1311;73579;-80
2021/11/30 07:58:26;;;;;;;19.70;16.80;;;;;;;1.37;100.00;97866.25;102410;1318;62225;-71
2021/11/30 08:00:52;;;;;;;18.90;16.70;;;;;;;1.41;100.00;97865.90;102652;1310;62158;-73
2021/11/30 08:03:20;;;;;;;19.40;17.10;;;;;;;1.48;100.00;97862.73;102633;1310;77109;-72
2021/11/30 08:05:47;;;;;;;18.20;15.40;;;;;;;1.62;100.00;97865.58;102882;1311;69764;-73
2021/11/30 08:08:14;;;;;;;16.80;14.80;;;;;;;1.72;100.00;97863.13;102645;1313;73890;-73
2021/11/30 08:10:40;;;;;;;15.70;12.60;;;;;;;1.72;100.00;97859.11;103097;1310;62138;-74
2021/11/30 08:13:07;;;;;;;17.60;14.70;;;;;;;1.69;100.00;97856.83;102821;1314;62401;-74
2021/11/30 08:15:36;;;;;;;18.70;14.00;;;;;;;1.66;100.00;97858.56;103574;1311;77820;-75
2021/11/30 08:18:04;;;;;;;21.40;16.70;;;;;;;1.64;100.00;97852.17;104762;1310;71309;-73
2021/11/30 08:20:32;;;;;;;16.60;13.90;;;;;;;1.65;100.00;97850.54;104336;1310;74516;-75
2021/11/30 08:22:59;;;;;;;16.80;14.10;;;;;;;1.69;100.00;97848.39;104702;1313;62132;-73
2021/11/30 08:25:26;;;;;;;20.30;14.70;;;;;;;1.77;100.00;97849.05;104519;1315;61977;-75
2021/11/30 08:27:55;;;;;;;17.50;13.80;;;;;;;1.89;100.00;97853.88;102637;1318;76084;-74
2021/11/30 08:30:22;;;;;;;16.60;14.10;;;;;;;1.99;100.00;97854.25;102487;1310;70486;-75
2021/11/30 08:32:49;;;;;;;14.90;11.50;;;;;;;2.10;100.00;97845.51;102541;1313;73588;-73
2021/11/30 08:35:16;;;;;;;13.70;12.30;;;;;;;2.16;99.94;97843.40;102504;1313;62163;-72
2021/11/30 08:37:43;;;;;;;12.90;11.40;;;;;;;2.23;100.00;97839.39;102476;1310;62212;-75
2021/11/30 08:40:12;;;;;;;12.80;10.70;;;;;;;2.29;99.83;97839.59;102108;1313;75921;-73
2021/11/30 08:42:39;;;;;;;13.80;11.60;;;;;;;2.33;99.51;97837.30;102389;1311;69304;-73
2021/11/30 08:45:07;;;;;;;15.70;12.10;;;;;;;2.38;99.64;97839.47;102335;1313;74968;-72
2021/11/30 08:47:35;;;;;;;13.40;11.50;;;;;;;2.45;98.98;97833.88;102376;1310;62028;-72
2021/11/30 08:50:05;;;;;;;13.10;10.00;;;;;;;2.46;98.56;97833.65;102413;1309;62102;-73
2021/11/30 08:52:32;;;;;;;10.70;8.90;;;;;;;2.42;97.83;97839.81;102570;1311;76976;-75
2021/11/30 08:54:59;;;;;;;10.60;9.00;;;;;;;2.42;97.88;97836.65;102642;1310;70852;-72
2021/11/30 08:57:27;;;;;;;10.20;9.20;;;;;;;2.43;97.64;97831.30;103043;1310;73543;-74
2021/11/30 08:59:55;;;;;;;10.10;9.00;;;;;;;2.46;97.18;97827.17;102912;1310;62123;-72
2021/11/30 09:02:23;;;;;;;9.70;8.70;;;;;;;2.45;96.79;97817.94;102356;1310;62158;-71
2021/11/30 09:04:49;;;;;;;10.40;9.00;;;;;;;2.40;96.30;97818.16;102390;1310;77226;-72
2021/11/30 09:07:17;;;;;;;11.20;9.90;;;;;;;2.34;96.55;97817.59;102442;1309;67053;-74
2021/11/30 09:09:46;;;;;;;9.70;8.70;;;;;;;2.31;96.63;97818.14;102107;1313;74514;-73
2021/11/30 09:12:16;;;;;;;11.30;9.00;;;;;;;2.24;96.27;97809.73;102519;1314;62727;-75
2021/11/30 09:14:45;;;;;;;12.50;9.80;;;;;;;2.23;96.68;97800.66;102150;1313;62230;-74
2021/11/30 09:17:13;;;;;;;10.90;9.70;;;;;;;2.22;96.72;97798.09;102383;1310;77279;-75
2021/11/30 09:19:40;;;;;;;10.60;9.50;;;;;;;2.24;96.17;97786.27;102612;1310;69350;-73
2021/11/30 09:22:08;;;;;;;10.50;9.40;;;;;;;2.31;96.13;97781.16;102326;1310;74588;-74
2021/11/30 09:24:34;;;;;;;10.00;8.80;;;;;;;2.37;95.54;97778.35;101909;1318;62296;-73
2021/11/30 09:27:01;;;;;;;10.80;9.20;;;;;;;2.38;95.32;97780.22;102317;1314;62158;-73
2021/11/30 09:29:28;;;;;;;9.00;8.10;;;;;;;2.39;95.08;97768.25;102294;1315;77186;-72
2021/11/30 09:31:54;;;;;;;10.10;9.00;;;;;;;2.42;94.59;97769.67;102427;1310;70566;-72
2021/11/30 09:34:21;;;;;;;9.40;8.20;;;;;;;2.47;93.73;97764.69;102332;1311;73423;-73
2021/11/30 09:36:48;;;;;;;9.50;7.30;;;;;;;2.57;93.56;97763.78;102269;1310;62191;-75
2021/11/30 09:39:15;;;;;;;8.60;7.40;;;;;;;2.65;93.22;97749.48;102288;1313;62139;-74
2021/11/30 09:41:44;;;;;;;7.70;6.70;;;;;;;2.64;92.98;97736.90;102380;1310;76527;-74
2021/11/30 09:44:12;;;;;;;8.40;7.50;;;;;;;2.59;92.32;97740.67;102381;1314;70057;-74
2021/11/30 09:46:39;;;;;;;7.70;6.90;;;;;;;2.57;92.21;97729.59;102339;1310;74670;-74
2021/11/30 09:49:06;;;;;;;8.40;7.40;;;;;;;2.58;92.34;97716.04;102355;1310;62178;-74
2021/11/30 09:51:33;;;;;;;8.40;7.10;;;;;;;2.65;92.37;97712.17;102357;1310;62215;-73
2021/11/30 09:54:00;;;;;;;8.50;7.40;;;;;;;2.69;91.85;97701.41;102415;1310;77325;-74
2021/11/30 09:56:27;;;;;;;8.80;7.70;;;;;;;2.73;91.62;97693.65;102049;1313;70893;-74
2021/11/30 09:58:53;;;;;;;8.40;7.40;;;;;;;2.77;91.78;97698.52;102240;1310;74274;-74
2021/11/30 10:01:20;;;;;;;8.60;7.20;;;;;;;2.82;91.66;97692.10;102289;1317;62225;-75
2021/11/30 10:03:47;;;;;;;8.60;7.70;;;;;;;2.83;91.30;97683.26;102286;1310;62021;-76
2021/11/30 10:06:14;;;;;;;8.20;7.30;;;;;;;2.84;91.35;97677.04;102307;1310;77311;-73
2021/11/30 10:08:44;;;;;;;7.70;6.90;;;;;;;2.86;90.97;97673.45;102333;1313;70916;-76
2021/11/30 10:11:26;;;;;;;7.80;7.00;;;;;;;2.89;90.78;97664.82;102379;1310;72249;-73
2021/11/30 10:14:14;;;;;;;8.80;7.60;;;;;;;2.96;91.09;97658.83;102352;1310;62030;-74
2021/11/30 10:17:01;;;;;;;8.50;7.60;;;;;;;3.04;90.72;97646.09;102364;1310;62238;-74
2021/11/30 10:19:29;;;;;;;11.30;9.70;;;;;;;3.14;90.61;97646.59;102536;1310;76298;-74
2021/11/30 10:21:56;;;;;;;11.00;9.60;;;;;;;3.24;90.62;97634.23;102373;1310;70787;-74
2021/11/30 10:24:23;;;;;;;12.90;10.50;;;;;;;3.34;90.49;97633.63;102284;1317;74469;-74
2021/11/30 10:26:49;;;;;;;11.70;9.90;;;;;;;3.42;89.98;97627.90;102189;1314;62140;-75
2021/11/30 10:29:17;;;;;;;10.60;8.90;;;;;;;3.43;89.32;97621.48;102370;1313;62246;-75
2021/11/30 10:31:48;;;;;;;11.70;9.20;;;;;;;3.38;87.90;97614.42;102287;1311;77093;-74
2021/11/30 10:34:17;;;;;;;9.50;7.90;;;;;;;3.33;88.26;97610.52;102366;1310;70501;-74
2021/11/30 10:36:52;;;;;;;9.10;6.90;;;;;;;3.30;88.08;97607.16;102316;1310;73914;-74
2021/11/30 10:39:25;;;;;;;7.40;6.60;;;;;;;3.28;87.57;97599.73;102359;1310;62055;-74
2021/11/30 10:41:53;;;;;;;9.00;7.10;;;;;;;3.27;87.27;97596.66;102341;1310;62050;-74
2021/11/30 10:44:29;;;;;;;9.00;5.90;;;;;;;3.26;85.81;97588.83;102376;1310;75736;-73
2021/11/30 10:47:17;;;;;;;7.40;5.90;;;;;;;3.23;84.76;97586.52;102398;1310;69618;-72
2021/11/30 10:49:58;;;;;;;6.40;5.40;;;;;;;3.23;85.03;97574.42;102113;1313;74850;-73
2021/11/30 10:52:30;;;;;;;7.80;6.60;;;;;;;3.25;85.56;97566.55;102142;1313;62257;-75
2021/11/30 10:55:13;;;;;;;16.80;10.60;;;;;;;3.30;85.72;97558.35;102334;1310;62217;-73
2021/11/30 10:57:41;;;;;;;6.80;5.90;;;;;;;3.33;85.03;97553.46;102179;1314;76748;-74
2021/11/30 11:00:16;;;;;;;8.00;6.50;;;;;;;3.33;84.95;97546.65;102353;1314;70879;-75
2021/11/30 11:02:49;;;;;;;7.40;6.10;;;;;;;3.33;84.92;97543.11;102376;1311;73265;-75
2021/11/30 11:05:22;;;;;;;7.60;6.00;;;;;;;3.32;83.97;97542.29;102387;1310;62083;-74
2021/11/30 11:08:00;;;;;;;10.80;7.30;;;;;;;3.32;84.28;97536.47;102496;1310;62048;-73
2021/11/30 11:10:27;;;;;;;7.80;6.40;;;;;;;3.36;83.74;97525.39;102400;1310;76309;-74
2021/11/30 11:12:54;;;;;;;7.10;5.50;;;;;;;3.38;83.77;97522.42;102401;1310;69561;-74
2021/11/30 11:15:40;;;;;;;6.20;5.60;;;;;;;3.37;82.93;97518.48;102518;1310;72846;-76
2021/11/30 11:18:21;;;;;;;6.50;5.60;;;;;;;3.30;82.35;97499.74;102520;1311;62121;-75
2021/11/30 11:20:50;;;;;;;7.70;5.90;;;;;;;3.21;82.21;97506.45;102541;1311;62219;-75
2021/11/30 11:23:25;;;;;;;8.10;6.50;;;;;;;3.07;82.58;97500.62;102300;1311;77276;-72
2021/11/30 11:25:53;;;;;;;8.20;6.40;;;;;;;2.89;84.21;97501.92;102114;1313;69783;-72
2021/11/30 11:28:22;;;;;;;8.20;6.40;;;;;;;2.78;84.44;97487.44;102455;1310;74218;-75
2021/11/30 11:30:51;;;;;;;9.10;6.60;;;;;;;2.77;84.79;97477.19;102441;1314;62100;-74